Time;durP1;ratioP1;P1;durP2;ratioP2;P2;SDS_P1;SDS_P2;PMS_P1;PMS_P2;Temp;Humidity;BMP_temperature;BMP_pressure;BME280_temperature;BME280_humidity;BME280_pressure;Samples;Min_cycle;Max_cycle;Signal;HPM_P1;HPM_P2
2021/08/03 00:02:22;;;;;;;4.23;2.50;;;;;;;18.81;58.75;98285.15;129547;1096;23047;-81
2021/08/03 00:04:50;;;;;;;5.65;2.15;;;;;;;18.84;59.08;98295.34;129498;1095;113991;-82
2021/08/03 00:07:19;;;;;;;5.65;3.35;;;;;;;18.87;59.22;98279.03;129448;1096;114135;-81
2021/08/03 00:09:47;;;;;;;3.98;2.60;;;;;;;18.91;59.01;98286.48;129394;1096;114335;-80
2021/08/03 00:12:16;;;;;;;4.30;2.85;;;;;;;18.93;58.72;98293.13;129414;1097;114395;-81
2021/08/03 00:14:45;;;;;;;3.43;2.48;;;;;;;18.94;58.87;98286.52;129391;1095;114348;-81
2021/08/03 00:17:23;;;;;;;4.75;2.85;;;;;;;18.95;58.79;98281.88;129513;1095;22569;-81
2021/08/03 00:19:50;;;;;;;3.63;2.70;;;;;;;18.94;58.85;98283.00;129508;1096;113663;-81
2021/08/03 00:22:16;;;;;;;5.65;2.90;;;;;;;18.91;58.52;98284.55;129419;1097;114778;-81
2021/08/03 00:24:43;;;;;;;5.45;3.10;;;;;;;18.91;58.81;98286.48;129389;1097;114125;-81
2021/08/03 00:27:10;;;;;;;6.33;3.15;;;;;;;18.87;58.66;98292.67;129404;1096;114366;-80
2021/08/03 00:29:37;;;;;;;4.80;2.60;;;;;;;18.85;58.74;98292.23;129428;1096;114736;-80
2021/08/03 00:32:04;;;;;;;2.60;2.40;;;;;;;18.82;59.04;98278.53;129545;1096;22543;-81
2021/08/03 00:34:30;;;;;;;4.73;2.90;;;;;;;18.79;58.71;98296.44;129419;1095;114045;-81
2021/08/03 00:36:57;;;;;;;3.45;2.60;;;;;;;18.77;58.59;98295.22;129453;1096;114337;-81
2021/08/03 00:39:23;;;;;;;4.70;2.83;;;;;;;18.74;58.54;98285.03;129419;1096;114372;-81
2021/08/03 00:41:56;;;;;;;4.05;2.85;;;;;;;18.72;58.74;98290.08;129432;1096;114407;-81
2021/08/03 00:44:43;;;;;;;5.25;2.80;;;;;;;18.67;58.94;98293.06;129549;1096;22556;-81
2021/08/03 00:47:12;;;;;;;3.20;2.65;;;;;;;18.61;59.20;98289.87;129526;1096;22506;-80
2021/08/03 00:49:39;;;;;;;3.98;2.78;;;;;;;18.58;59.40;98293.31;129394;1097;114181;-81
2021/08/03 00:52:07;;;;;;;8.58;3.10;;;;;;;18.56;59.29;98298.36;129420;1096;115692;-80
2021/08/03 00:54:34;;;;;;;5.60;2.95;;;;;;;18.53;59.05;98301.81;129426;1096;114221;-81
2021/08/03 00:57:00;;;;;;;5.78;2.70;;;;;;;18.50;59.45;98303.31;129422;1096;114525;-81
2021/08/03 00:59:26;;;;;;;2.97;2.37;;;;;;;18.50;59.50;98291.63;129431;1096;114272;-80
2021/08/03 01:01:54;;;;;;;3.73;2.30;;;;;;;18.48;59.86;98305.63;129523;1096;22507;-80
2021/08/03 01:04:20;;;;;;;3.80;2.13;;;;;;;18.51;60.34;98299.45;129380;1096;114023;-81
2021/08/03 01:07:24;;;;;;;4.63;2.40;;;;;;;18.53;60.56;98309.98;129380;1097;115037;-81
2021/08/03 01:10:19;;;;;;;3.80;2.90;;;;;;;18.52;60.16;98301.02;129055;1096;114089;-81
2021/08/03 01:13:16;;;;;;;5.20;2.80;;;;;;;18.54;59.95;98304.16;129468;1096;114131;-81
2021/08/03 01:15:48;;;;;;;6.45;3.18;;;;;;;18.54;59.91;98298.70;129510;1096;114153;-81
2021/08/03 01:18:30;;;;;;;2.88;2.30;;;;;;;18.53;59.99;98299.08;129425;1096;114158;-81
2021/08/03 01:21:11;;;;;;;5.58;2.90;;;;;;;18.52;59.83;98308.42;129512;1096;114241;-81
2021/08/03 01:23:53;;;;;;;4.58;2.80;;;;;;;18.50;59.36;98310.70;129475;1096;114356;-80
2021/08/03 01:26:41;;;;;;;5.58;3.18;;;;;;;18.48;59.91;98305.63;129511;1097;22530;-81
2021/08/03 01:29:09;;;;;;;5.18;2.70;;;;;;;18.44;59.67;98302.05;129626;1096;22563;-80
2021/08/03 01:31:40;;;;;;;4.33;2.55;;;;;;;18.42;59.83;98306.28;129434;1096;113911;-81
2021/08/03 01:34:11;;;;;;;3.28;2.40;;;;;;;18.38;59.91;98306.22;129442;1096;114489;-81
2021/08/03 01:36:40;;;;;;;6.18;2.80;;;;;;;18.34;60.03;98305.36;129412;1097;114995;-81
2021/08/03 01:39:07;;;;;;;3.95;2.80;;;;;;;18.29;60.13;98313.84;129398;1096;114501;-82
2021/08/03 01:41:35;;;;;;;4.95;3.10;;;;;;;18.24;60.27;98304.03;129435;1096;114163;-81
2021/08/03 01:44:03;;;;;;;6.63;2.83;;;;;;;18.21;60.27;98307.48;129542;1096;22572;-81
2021/08/03 01:46:34;;;;;;;3.90;2.65;;;;;;;18.19;60.40;98314.43;129420;1096;114628;-82
2021/08/03 01:49:01;;;;;;;4.97;3.07;;;;;;;18.14;60.81;98312.79;129398;1096;114307;-82
2021/08/03 01:51:30;;;;;;;3.68;2.60;;;;;;;18.12;60.48;98315.10;129413;1095;114470;-81
2021/08/03 01:53:57;;;;;;;4.43;2.68;;;;;;;18.11;60.70;98308.05;129418;1096;114994;-81
2021/08/03 01:56:25;;;;;;;4.15;2.50;;;;;;;18.13;61.07;98311.22;129527;1096;22540;-81
2021/08/03 01:58:52;;;;;;;4.45;2.75;;;;;;;18.14;61.36;98318.23;129533;1097;22556;-82
2021/08/03 02:01:21;;;;;;;5.90;2.80;;;;;;;18.15;61.24;98317.87;129416;1096;114452;-82
2021/08/03 02:03:49;;;;;;;6.88;3.13;;;;;;;18.17;60.78;98320.25;129434;1096;114848;-81
2021/08/03 02:06:17;;;;;;;4.78;2.73;;;;;;;18.18;60.91;98318.31;129389;1096;114461;-82
2021/08/03 02:08:44;;;;;;;7.30;2.88;;;;;;;18.18;61.05;98318.31;129423;1096;114220;-81
2021/08/03 02:11:10;;;;;;;3.23;2.80;;;;;;;18.17;61.06;98322.19;129527;1096;23309;-81
2021/08/03 02:13:36;;;;;;;4.43;2.95;;;;;;;18.15;60.75;98327.98;129434;1096;114398;-81
2021/08/03 02:16:02;;;;;;;4.28;2.80;;;;;;;18.12;61.12;98312.38;129450;1096;114172;-80
2021/08/03 02:18:28;;;;;;;3.73;2.60;;;;;;;18.09;61.30;98310.36;129502;1096;114153;-80
2021/08/03 02:20:54;;;;;;;6.55;2.80;;;;;;;18.06;60.87;98317.31;129421;1096;114898;-80
2021/08/03 02:23:21;;;;;;;5.98;2.70;;;;;;;18.03;60.86;98314.52;129526;1097;22664;-80
2021/08/03 02:25:47;;;;;;;4.63;2.98;;;;;;;17.97;60.91;98313.25;129414;1096;114336;-80
2021/08/03 02:28:13;;;;;;;4.55;2.80;;;;;;;17.94;61.00;98313.96;129426;1096;114169;-80
2021/08/03 02:30:43;;;;;;;5.18;2.48;;;;;;;17.88;60.92;98321.61;129447;1096;114157;-80
2021/08/03 02:33:26;;;;;;;4.30;2.90;;;;;;;17.84;61.07;98316.13;129428;1097;114828;-81
2021/08/03 02:36:04;;;;;;;6.33;3.18;;;;;;;17.78;61.25;98317.54;129401;1096;114871;-81
2021/08/03 02:38:36;;;;;;;4.75;3.00;;;;;;;17.73;61.35;98312.36;129428;1096;114209;-80
2021/08/03 02:41:02;;;;;;;5.03;2.88;;;;;;;17.69;61.27;98314.22;129556;1096;22524;-81
2021/08/03 02:43:32;;;;;;;4.30;2.30;;;;;;;17.67;61.63;98314.56;129411;1096;114100;-81
2021/08/03 02:46:02;;;;;;;4.05;2.35;;;;;;;17.67;62.03;98317.28;129432;1096;114391;-81
2021/08/03 02:48:30;;;;;;;3.78;2.33;;;;;;;17.70;61.89;98310.34;129436;1097;114123;-81
2021/08/03 02:50:59;;;;;;;4.08;2.93;;;;;;;17.70;61.94;98317.73;129448;1095;114443;-81
2021/08/03 02:53:47;;;;;;;5.48;2.78;;;;;;;17.71;61.97;98322.80;129424;1097;114228;-80
2021/08/03 02:56:17;;;;;;;5.18;2.78;;;;;;;17.71;61.88;98324.75;129602;1096;22490;-81
2021/08/03 02:59:00;;;;;;;6.03;2.80;;;;;;;17.72;61.86;98331.76;129397;1096;114180;-81
2021/08/03 03:01:28;;;;;;;4.05;2.60;;;;;;;17.69;61.65;98335.22;129427;1096;114147;-81
2021/08/03 03:04:00;;;;;;;3.53;2.43;;;;;;;17.64;61.74;98330.82;129423;1096;114641;-81
2021/08/03 03:06:27;;;;;;;4.23;2.38;;;;;;;17.62;62.05;98342.08;129436;1096;114393;-81
2021/08/03 03:08:54;;;;;;;5.83;2.80;;;;;;;17.59;61.99;98342.78;129422;1095;114976;-80
2021/08/03 03:11:26;;;;;;;5.68;2.60;;;;;;;17.57;62.18;98344.30;129517;1097;22562;-80
2021/08/03 03:13:58;;;;;;;4.30;2.50;;;;;;;17.54;62.44;98347.73;129534;1096;22552;-80
2021/08/03 03:16:27;;;;;;;6.08;2.90;;;;;;;17.49;62.39;98350.71;129443;1096;113996;-81
2021/08/03 03:18:57;;;;;;;6.60;3.00;;;;;;;17.43;62.74;98358.38;129484;1096;114732;-81
2021/08/03 03:21:26;;;;;;;3.08;2.40;;;;;;;17.39;62.62;98358.30;129513;1096;114143;-82
2021/08/03 03:23:56;;;;;;;5.20;2.65;;;;;;;17.39;62.91;98363.73;129392;1096;114377;-81
2021/08/03 03:26:28;;;;;;;5.33;2.50;;;;;;;17.41;63.13;98360.68;129610;1096;22523;-81
2021/08/03 03:28:56;;;;;;;4.10;2.65;;;;;;;17.45;63.67;98358.83;129522;1096;22532;-81
2021/08/03 03:31:27;;;;;;;4.70;2.55;;;;;;;17.48;63.32;98363.53;129456;1096;113920;-81
2021/08/03 03:33:55;;;;;;;4.83;2.90;;;;;;;17.49;63.24;98353.44;129406;1097;114304;-82
2021/08/03 03:36:28;;;;;;;5.13;2.80;;;;;;;17.52;63.13;98360.89;129392;1096;114552;-81
2021/08/03 03:38:57;;;;;;;4.15;2.68;;;;;;;17.53;63.50;98362.50;129433;1097;114451;-81
2021/08/03 03:41:25;;;;;;;5.18;2.98;;;;;;;17.53;63.23;98367.94;129526;1095;22611;-81
2021/08/03 03:43:52;;;;;;;5.35;2.60;;;;;;;17.53;63.12;98365.22;129603;1096;23335;-82
2021/08/03 03:46:21;;;;;;;6.35;3.18;;;;;;;17.51;63.17;98368.28;129432;1096;114153;-82
2021/08/03 03:49:04;;;;;;;4.65;2.80;;;;;;;17.50;63.01;98365.92;129436;1096;114200;-81
2021/08/03 03:51:34;;;;;;;4.68;2.90;;;;;;;17.47;63.24;98372.86;129379;1096;114176;-81
2021/08/03 03:54:06;;;;;;;5.90;3.08;;;;;;;17.46;63.10;98365.84;129435;1096;114384;-81
2021/08/03 03:56:38;;;;;;;3.45;2.75;;;;;;;17.45;63.26;98371.63;129412;1096;114179;-82
2021/08/03 03:59:05;;;;;;;6.25;2.95;;;;;;;17.43;63.20;98370.05;129515;1096;22570;-81
2021/08/03 04:01:33;;;;;;;4.30;2.63;;;;;;;17.43;63.54;98363.82;129471;1096;113986;-82
2021/08/03 04:04:03;;;;;;;3.83;2.50;;;;;;;17.46;63.49;98371.28;129416;1096;114207;-81
2021/08/03 04:06:32;;;;;;;6.00;2.73;;;;;;;17.51;63.54;98375.66;129433;1096;114299;-82
2021/08/03 04:08:58;;;;;;;5.23;2.70;;;;;;;17.56;63.86;98369.93;129400;1096;114356;-82
2021/08/03 04:11:25;;;;;;;5.18;2.85;;;;;;;17.60;63.82;98374.30;129572;1096;22557;-81
2021/08/03 04:13:52;;;;;;;5.03;3.00;;;;;;;17.62;63.76;98374.75;129524;1097;22587;-82
2021/08/03 04:16:19;;;;;;;4.80;3.13;;;;;;;17.67;63.79;98373.68;129425;1096;114196;-81
2021/08/03 04:18:45;;;;;;;4.53;2.95;;;;;;;17.70;63.48;98362.08;129425;1096;114109;-81
2021/08/03 04:21:12;;;;;;;5.10;2.88;;;;;;;17.73;63.61;98366.83;129431;1096;114298;-81
2021/08/03 04:23:38;;;;;;;5.33;2.80;;;;;;;17.76;63.21;98374.28;129430;1097;114189;-81
2021/08/03 04:26:04;;;;;;;4.75;2.78;;;;;;;17.77;63.64;98370.44;129536;1096;22578;-81
2021/08/03 04:28:31;;;;;;;6.03;3.00;;;;;;;17.79;63.52;98359.96;129383;1096;113966;-81
2021/08/03 04:30:59;;;;;;;4.08;2.75;;;;;;;17.81;63.53;98370.52;129436;1096;114096;-81
2021/08/03 04:33:27;;;;;;;4.65;3.08;;;;;;;17.81;63.58;98365.86;129426;1096;114998;-82
2021/08/03 04:35:53;;;;;;;8.05;2.95;;;;;;;17.85;63.56;98358.55;129421;1096;114286;-81
2021/08/03 04:38:20;;;;;;;7.08;3.00;;;;;;;17.87;63.60;98364.41;129520;1097;22719;-81
2021/08/03 04:40:46;;;;;;;5.08;2.40;;;;;;;17.93;63.85;98358.70;129409;1097;114685;-81
2021/08/03 04:43:12;;;;;;;3.35;2.50;;;;;;;18.00;64.26;98362.36;129524;1096;115535;-81
2021/08/03 04:45:37;;;;;;;3.48;2.65;;;;;;;18.08;63.93;98363.30;129427;1097;114282;-81
2021/08/03 04:48:04;;;;;;;3.30;2.60;;;;;;;18.14;64.34;98367.29;129499;1096;114554;-81
2021/08/03 04:50:30;;;;;;;4.70;2.80;;;;;;;18.21;64.36;98369.38;129429;1096;114466;-81
2021/08/03 04:52:57;;;;;;;8.48;3.45;;;;;;;18.27;64.01;98368.70;129528;1097;23033;-80
2021/08/03 04:55:23;;;;;;;4.85;3.08;;;;;;;18.34;63.84;98368.84;129453;1096;114112;-80
2021/08/03 04:57:49;;;;;;;3.98;2.60;;;;;;;18.41;64.03;98373.66;129424;1097;114209;-81
2021/08/03 05:00:16;;;;;;;5.13;3.05;;;;;;;18.47;63.98;98364.05;129414;1096;113056;-81
2021/08/03 05:02:43;;;;;;;4.80;3.20;;;;;;;18.53;63.91;98373.48;129402;1095;114364;-80
2021/08/03 05:05:11;;;;;;;4.90;3.10;;;;;;;18.59;63.88;98368.54;129502;1097;22584;-80
2021/08/03 05:07:37;;;;;;;6.03;3.05;;;;;;;18.65;63.76;98384.22;129392;1097;113910;-81
2021/08/03 05:10:06;;;;;;;4.88;2.80;;;;;;;18.72;63.58;98386.33;129504;1096;114205;-79
2021/08/03 05:12:34;;;;;;;4.85;2.90;;;;;;;18.79;63.50;98377.49;129392;1096;114253;-79
2021/08/03 05:15:00;;;;;;;4.58;2.70;;;;;;;18.88;63.41;98383.48;129399;1096;114746;-80
2021/08/03 05:17:31;;;;;;;3.53;2.38;;;;;;;18.99;63.20;98381.73;129398;1096;114608;-80
2021/08/03 05:19:57;;;;;;;3.73;2.38;;;;;;;19.12;63.49;98388.56;129514;1097;22568;-80
2021/08/03 05:22:25;;;;;;;6.90;3.38;;;;;;;19.26;63.18;98390.75;129442;1096;114127;-81
2021/08/03 05:24:51;;;;;;;12.15;3.35;;;;;;;19.40;63.16;98397.56;129388;1096;114239;-85
2021/08/03 05:27:18;;;;;;;9.65;3.25;;;;;;;19.52;62.80;98408.28;129307;1096;114604;-82
2021/08/03 05:29:44;;;;;;;6.43;2.93;;;;;;;19.61;62.97;98406.91;129369;1096;114264;-83
2021/08/03 05:32:10;;;;;;;8.55;2.90;;;;;;;19.67;62.80;98403.85;129513;1096;23792;-85
2021/08/03 05:34:37;;;;;;;7.65;3.28;;;;;;;19.74;62.93;98403.95;129381;1096;114377;-85
2021/08/03 05:37:05;;;;;;;17.45;3.70;;;;;;;19.83;62.84;98399.78;129396;1096;114274;-85
2021/08/03 05:39:31;;;;;;;21.10;3.88;;;;;;;19.93;62.86;98405.78;129403;1096;114517;-83
2021/08/03 05:41:58;;;;;;;9.65;3.98;;;;;;;20.01;62.69;98397.30;129415;1096;114634;-83
2021/08/03 05:44:24;;;;;;;7.88;3.20;;;;;;;20.09;62.63;98404.42;129512;1096;23087;-85
2021/08/03 05:46:50;;;;;;;6.78;3.18;;;;;;;20.19;62.32;98396.72;129544;1097;22593;-85
2021/08/03 05:49:16;;;;;;;9.38;3.48;;;;;;;20.28;61.98;98398.02;129401;1096;114043;-85
2021/08/03 05:51:42;;;;;;;4.88;3.08;;;;;;;20.30;61.59;98400.38;129486;1096;114332;-83
2021/08/03 05:54:09;;;;;;;5.08;2.90;;;;;;;20.34;61.50;98388.31;129408;1096;114469;-84
2021/08/03 05:56:37;;;;;;;6.08;3.05;;;;;;;20.46;61.49;98395.47;129418;1097;114276;-85
2021/08/03 05:59:03;;;;;;;4.78;2.70;;;;;;;20.56;61.34;98394.84;129517;1096;23269;-83
2021/08/03 06:01:29;;;;;;;5.03;2.88;;;;;;;20.69;61.29;98402.78;129410;1097;114244;-82
2021/08/03 06:03:55;;;;;;;4.85;3.35;;;;;;;20.81;61.12;98392.34;129391;1096;114257;-82
2021/08/03 06:06:21;;;;;;;6.48;2.68;;;;;;;21.00;61.40;98401.52;129406;1096;114161;-81
2021/08/03 06:08:48;;;;;;;4.38;2.65;;;;;;;21.16;61.08;98407.52;129379;1096;114242;-84
2021/08/03 06:11:22;;;;;;;3.80;2.55;;;;;;;21.35;60.29;98417.48;129518;1096;23009;-84
2021/08/03 06:13:53;;;;;;;4.40;2.80;;;;;;;21.52;59.19;98410.55;129426;1096;113666;-84
2021/08/03 06:16:24;;;;;;;6.40;2.85;;;;;;;21.68;58.67;98411.05;129460;1096;114811;-84
2021/08/03 06:18:53;;;;;;;4.23;2.55;;;;;;;21.84;58.41;98413.48;129445;1096;114190;-87
2021/08/03 06:21:20;;;;;;;8.15;3.10;;;;;;;22.00;58.06;98416.70;129421;1096;114484;-86
2021/08/03 06:23:49;;;;;;;3.65;2.78;;;;;;;22.10;57.17;98426.16;129423;1096;114485;-84
2021/08/03 06:26:17;;;;;;;4.55;3.00;;;;;;;22.20;56.43;98438.37;129538;1096;22518;-87
2021/08/03 06:28:52;;;;;;;6.37;3.30;;;;;;;22.26;56.50;98443.11;129410;1097;112765;-88
2021/08/03 06:31:21;;;;;;;6.45;3.00;;;;;;;22.32;56.47;98446.26;129393;1096;114211;-90
2021/08/03 06:33:51;;;;;;;7.03;3.30;;;;;;;22.39;55.60;98442.77;129430;1096;114253;-89
2021/08/03 06:36:56;;;;;;;5.00;3.30;;;;;;;22.45;55.30;98443.98;129428;1096;114316;-89
2021/08/03 06:39:32;;;;;;;4.48;3.05;;;;;;;22.53;55.22;98442.83;129501;1096;114061;-88
2021/08/03 06:42:48;;;;;;;5.25;2.98;;;;;;;22.60;54.46;98453.83;129417;1096;114622;-90
2021/08/03 06:45:21;;;;;;;6.58;2.95;;;;;;;22.64;54.17;98451.88;128650;1096;113039;-86
2021/08/03 06:47:59;;;;;;;5.78;3.03;;;;;;;22.70;53.57;98447.57;129427;1096;114457;-85
2021/08/03 06:50:29;;;;;;;5.68;3.23;;;;;;;22.75;53.57;98444.47;129588;1095;22558;-86
2021/08/03 06:52:56;;;;;;;6.33;3.10;;;;;;;22.81;53.74;98449.56;129501;1096;22535;-86
2021/08/03 06:55:33;;;;;;;4.13;2.88;;;;;;;22.85;53.55;98442.91;129405;1096;114099;-85
2021/08/03 06:58:04;;;;;;;7.53;3.33;;;;;;;22.91;52.79;98454.31;129439;1095;114146;-87
2021/08/03 07:00:36;;;;;;;5.33;3.10;;;;;;;23.00;52.51;98460.23;129445;1096;114392;-88
2021/08/03 07:03:04;;;;;;;5.28;2.75;;;;;;;23.06;52.09;98449.63;129472;1096;114722;-84
2021/08/03 07:05:32;;;;;;;5.20;3.00;;;;;;;23.14;51.76;98449.24;129544;1096;114315;-87
2021/08/03 07:07:59;;;;;;;4.35;3.10;;;;;;;23.25;51.52;98450.04;129592;1096;22551;-86
2021/08/03 07:10:26;;;;;;;6.00;2.73;;;;;;;23.38;51.39;98452.39;129507;1096;112778;-87
2021/08/03 07:12:53;;;;;;;4.65;3.10;;;;;;;23.45;51.47;98450.43;129475;1096;114148;-84
2021/08/03 07:15:22;;;;;;;6.28;2.78;;;;;;;23.50;50.94;98452.00;129439;1097;114161;-86
2021/08/03 07:17:49;;;;;;;4.40;2.90;;;;;;;23.61;50.73;98452.00;129444;1097;114303;-86
2021/08/03 07:20:16;;;;;;;7.53;2.95;;;;;;;23.67;50.23;98453.21;129467;1096;22550;-86
2021/08/03 07:22:42;;;;;;;5.40;3.10;;;;;;;23.74;49.74;98444.96;129392;1096;114080;-86
2021/08/03 07:25:10;;;;;;;5.38;3.40;;;;;;;23.80;48.92;98440.61;129393;1096;114246;-86
2021/08/03 07:27:36;;;;;;;5.60;2.90;;;;;;;23.85;48.90;98440.20;129395;1096;114100;-86
2021/08/03 07:30:08;;;;;;;6.35;3.08;;;;;;;23.96;48.68;98426.43;129402;1097;114390;-86
2021/08/03 07:32:35;;;;;;;5.23;3.03;;;;;;;24.11;48.25;98435.43;129414;1096;114217;-87
2021/08/03 07:35:03;;;;;;;5.83;2.95;;;;;;;24.18;47.56;98435.41;129640;1096;22592;-86
2021/08/03 07:37:30;;;;;;;5.00;2.95;;;;;;;24.22;47.09;98425.95;129424;1097;114196;-87
2021/08/03 07:39:58;;;;;;;4.65;2.95;;;;;;;24.28;46.85;98420.81;129426;1094;114117;-85
2021/08/03 07:42:24;;;;;;;3.78;2.78;;;;;;;24.40;46.39;98425.12;129435;1096;114373;-86
2021/08/03 07:44:50;;;;;;;4.33;2.60;;;;;;;24.46;45.78;98438.07;129486;1096;114353;-85
2021/08/03 07:47:16;;;;;;;5.80;2.90;;;;;;;24.60;45.55;98426.22;129527;1096;22570;-85
2021/08/03 07:49:43;;;;;;;5.00;2.90;;;;;;;24.65;45.87;98436.02;129528;1096;113754;-86
2021/08/03 07:52:10;;;;;;;4.83;3.05;;;;;;;24.69;44.91;98440.31;129493;1096;114172;-87
2021/08/03 07:54:35;;;;;;;4.35;2.58;;;;;;;24.74;44.45;98439.88;129543;1096;114327;-85
2021/08/03 07:57:02;;;;;;;3.95;2.80;;;;;;;24.78;44.02;98448.13;129562;1096;114278;-86
2021/08/03 07:59:27;;;;;;;3.93;2.43;;;;;;;24.78;43.27;98452.86;129462;1096;115111;-86
2021/08/03 08:01:54;;;;;;;4.53;2.55;;;;;;;24.77;43.90;98446.56;129600;1096;22606;-86
2021/08/03 08:04:20;;;;;;;4.35;2.43;;;;;;;24.78;44.11;98455.61;129561;1096;114301;-86
2021/08/03 08:06:46;;;;;;;4.70;2.70;;;;;;;24.82;43.98;98459.13;129452;1097;113390;-86
2021/08/03 08:09:12;;;;;;;4.43;2.65;;;;;;;24.89;43.50;98465.38;129478;1097;114082;-87
2021/08/03 08:11:38;;;;;;;4.55;2.98;;;;;;;24.89;43.70;98476.40;129570;1097;113589;-86
2021/08/03 08:14:05;;;;;;;4.20;2.65;;;;;;;24.88;44.10;98476.81;129631;1096;23011;-86
2021/08/03 08:16:31;;;;;;;6.60;3.03;;;;;;;24.82;43.78;98487.45;129577;1096;114119;-85
2021/08/03 08:18:57;;;;;;;5.03;3.03;;;;;;;24.83;44.00;98477.21;129473;1096;114272;-85
2021/08/03 08:21:24;;;;;;;4.80;3.18;;;;;;;24.82;43.87;98481.94;129538;1094;114143;-86
2021/08/03 08:23:51;;;;;;;5.40;2.78;;;;;;;24.86;44.40;98485.45;129536;1096;114271;-88
2021/08/03 08:26:17;;;;;;;7.33;3.35;;;;;;;24.92;44.36;98478.35;129487;1096;22526;-87
2021/08/03 08:28:43;;;;;;;4.28;3.00;;;;;;;24.99;44.54;98477.51;129526;1096;113850;-87
2021/08/03 08:31:09;;;;;;;6.63;3.03;;;;;;;25.08;45.33;98483.38;129456;1096;114353;-87
2021/08/03 08:33:35;;;;;;;5.40;3.13;;;;;;;25.19;44.93;98473.09;129441;1097;114158;-86
2021/08/03 08:36:01;;;;;;;5.63;3.25;;;;;;;25.28;45.36;98477.36;129396;1096;114285;-87
2021/08/03 08:38:27;;;;;;;5.53;2.98;;;;;;;25.38;45.59;98480.02;129415;1096;114144;-86
2021/08/03 08:40:53;;;;;;;5.40;3.48;;;;;;;25.45;44.76;98468.16;129522;1097;22686;-85
2021/08/03 08:43:19;;;;;;;4.30;3.30;;;;;;;25.46;44.82;98470.50;129436;1096;114656;-86
2021/08/03 08:45:45;;;;;;;6.28;3.05;;;;;;;25.53;45.39;98471.64;129489;1096;114079;-86
2021/08/03 08:48:13;;;;;;;5.18;3.30;;;;;;;25.61;45.09;98473.92;129529;1096;114255;-86
2021/08/03 08:50:40;;;;;;;5.93;3.18;;;;;;;25.66;45.03;98461.67;129400;1097;114626;-87
2021/08/03 08:53:06;;;;;;;5.65;3.03;;;;;;;25.64;45.04;98472.34;129493;1095;22539;-87
2021/08/03 08:55:33;;;;;;;5.50;3.08;;;;;;;25.54;43.76;98462.17;129416;1096;114009;-86
2021/08/03 08:57:59;;;;;;;6.20;3.33;;;;;;;25.50;44.08;98473.23;129416;1096;114307;-85
2021/08/03 09:00:25;;;;;;;5.58;3.00;;;;;;;25.46;43.71;98464.20;129504;1096;114392;-86
2021/08/03 09:02:53;;;;;;;5.63;3.18;;;;;;;25.39;43.28;98447.75;129478;1096;114570;-86
2021/08/03 09:05:28;;;;;;;6.48;3.20;;;;;;;25.42;43.26;98439.42;129521;1096;22540;-85
2021/08/03 09:08:00;;;;;;;4.28;2.95;;;;;;;25.50;43.55;98436.61;129542;1096;22521;-85
2021/08/03 09:10:31;;;;;;;5.53;3.03;;;;;;;25.58;43.37;98422.34;129406;1096;113942;-85
2021/08/03 09:13:03;;;;;;;7.65;3.28;;;;;;;25.72;42.86;98432.47;129434;1096;114295;-85
2021/08/03 09:15:30;;;;;;;6.43;3.25;;;;;;;25.86;43.23;98437.08;129430;1096;114182;-85
2021/08/03 09:18:12;;;;;;;7.78;2.95;;;;;;;26.00;42.91;98428.66;129434;1096;114494;-85
2021/08/03 09:20:38;;;;;;;6.80;3.28;;;;;;;26.10;41.74;98429.74;129446;1096;114183;-85
2021/08/03 09:23:04;;;;;;;6.40;2.55;;;;;;;26.14;42.16;98436.00;129494;1096;22556;-85
2021/08/03 09:25:30;;;;;;;5.93;3.25;;;;;;;26.28;41.56;98448.84;129404;1096;114103;-85
2021/08/03 09:28:07;;;;;;;4.43;3.10;;;;;;;26.39;40.57;98444.75;129415;1096;114248;-84
2021/08/03 09:30:36;;;;;;;5.95;2.93;;;;;;;26.52;40.57;98433.96;129430;1096;114190;-85
2021/08/03 09:33:03;;;;;;;5.45;3.10;;;;;;;26.66;40.95;98444.83;129431;1096;114308;-85
2021/08/03 09:35:30;;;;;;;5.45;2.90;;;;;;;26.78;40.61;98442.70;129420;1096;114311;-85
2021/08/03 09:37:58;;;;;;;3.65;2.95;;;;;;;26.81;39.74;98447.41;129519;1096;22569;-85
2021/08/03 09:40:24;;;;;;;6.85;3.60;;;;;;;26.80;38.81;98437.53;129402;1097;113895;-85
2021/08/03 09:42:58;;;;;;;3.48;2.73;;;;;;;26.80;39.11;98435.58;129502;1096;114096;-85
2021/08/03 09:45:25;;;;;;;6.33;2.78;;;;;;;26.94;39.18;98440.10;129410;1096;114542;-85
2021/08/03 09:47:54;;;;;;;4.70;2.78;;;;;;;27.09;39.29;98432.38;129482;1096;114369;-86
2021/08/03 09:50:20;;;;;;;5.50;2.88;;;;;;;27.28;38.28;98425.41;129509;1097;22576;-85
2021/08/03 09:52:49;;;;;;;5.55;2.80;;;;;;;27.46;37.60;98425.09;129483;1096;113753;-85
2021/08/03 09:55:15;;;;;;;4.18;2.83;;;;;;;27.57;37.85;98420.94;129419;1096;114920;-85
2021/08/03 09:57:42;;;;;;;5.65;2.55;;;;;;;27.76;37.57;98419.45;129431;1096;115056;-86
2021/08/03 10:00:34;;;;;;;4.33;2.40;;;;;;;27.76;37.61;98424.20;129395;1096;114320;-86
2021/08/03 10:03:06;;;;;;;5.80;2.68;;;;;;;27.67;37.26;98427.50;129371;1097;114454;-86
2021/08/03 10:05:33;;;;;;;5.88;2.65;;;;;;;27.64;36.74;98431.10;129496;1096;114199;-85
2021/08/03 10:07:59;;;;;;;6.65;3.35;;;;;;;27.56;36.98;98426.91;129538;1096;23006;-86
2021/08/03 10:10:26;;;;;;;5.25;2.60;;;;;;;27.44;36.79;98425.52;129414;1096;114166;-86
2021/08/03 10:12:52;;;;;;;4.03;2.50;;;;;;;27.36;36.64;98426.84;129405;1096;114433;-87
2021/08/03 10:15:18;;;;;;;2.63;2.38;;;;;;;27.29;37.00;98435.25;129420;1096;114535;-87
2021/08/03 10:17:44;;;;;;;3.63;2.43;;;;;;;27.26;36.30;98420.28;129466;1096;114248;-88
2021/08/03 10:20:12;;;;;;;3.95;2.20;;;;;;;27.37;37.01;98425.64;129523;1096;23455;-89
2021/08/03 10:23:09;;;;;;;3.13;2.30;;;;;;;27.45;36.46;98427.08;129427;1097;114015;-89
2021/08/03 10:26:18;;;;;;;3.48;2.40;;;;;;;27.72;36.48;98417.92;129417;1096;114684;-90
2021/08/03 10:29:23;;;;;;;3.90;2.50;;;;;;;28.19;34.97;98423.38;129500;1096;113949;-89
2021/08/03 10:31:54;;;;;;;4.05;2.40;;;;;;;28.29;34.32;98417.61;129426;1097;114086;-90
2021/08/03 10:35:02;;;;;;;3.48;2.30;;;;;;;28.35;34.14;98420.67;129404;1096;114278;-89
2021/08/03 10:37:56;;;;;;;4.25;2.60;;;;;;;28.47;34.40;98414.50;129519;1096;114101;-89
2021/08/03 10:40:49;;;;;;;3.05;2.28;;;;;;;28.64;33.21;98407.00;129485;1097;114171;-91
2021/08/03 10:43:54;;;;;;;4.55;2.35;;;;;;;28.68;33.14;98420.78;129386;1096;114018;-90
2021/08/03 10:46:42;;;;;;;4.63;2.65;;;;;;;28.64;32.83;98412.55;129493;1095;114029;-89
2021/08/03 10:49:10;;;;;;;5.18;2.35;;;;;;;28.69;33.37;98419.56;129440;1096;114155;-89
2021/08/03 10:51:39;;;;;;;5.08;2.40;;;;;;;28.84;33.06;98418.03;129409;1097;116792;-90
2021/08/03 10:54:08;;;;;;;4.85;2.25;;;;;;;29.03;31.81;98408.13;129409;1096;114409;-89
2021/08/03 10:56:52;;;;;;;3.20;2.23;;;;;;;29.05;31.88;98411.26;129426;1095;114230;-89
2021/08/03 10:59:30;;;;;;;3.53;2.38;;;;;;;28.95;32.36;98409.48;129588;1096;22520;-89
2021/08/03 11:01:57;;;;;;;4.20;2.53;;;;;;;28.81;32.53;98410.60;129568;1096;22548;-88
2021/08/03 11:04:48;;;;;;;3.48;2.40;;;;;;;28.66;32.30;98412.13;129426;1097;114253;-89
2021/08/03 11:07:37;;;;;;;2.93;2.37;;;;;;;28.52;32.80;98407.67;129450;1096;114183;-91
2021/08/03 11:10:08;;;;;;;5.00;2.53;;;;;;;28.48;33.14;98409.73;129382;1096;114038;-89
2021/08/03 11:13:04;;;;;;;4.80;2.68;;;;;;;28.44;32.78;98400.73;129427;1096;114339;-89
2021/08/03 11:16:16;;;;;;;4.55;2.70;;;;;;;28.42;33.21;98403.16;129246;1096;114465;-90
2021/08/03 11:18:50;;;;;;;8.38;2.90;;;;;;;28.33;33.84;98400.92;129481;1096;114351;-89
2021/08/03 11:21:25;;;;;;;4.90;2.65;;;;;;;28.19;33.64;98390.16;129464;1096;114253;-90
2021/08/03 11:24:33;;;;;;;2.83;2.38;;;;;;;28.11;33.85;98390.30;129407;1096;114577;-89
2021/08/03 11:27:00;;;;;;;4.78;2.23;;;;;;;28.04;34.31;98378.59;129486;1096;114323;-89
2021/08/03 11:29:35;;;;;;;3.63;2.50;;;;;;;28.03;34.12;98377.81;129422;1097;114243;-89
2021/08/03 11:32:10;;;;;;;2.85;2.48;;;;;;;28.01;34.31;98376.66;129588;1096;22666;-88
2021/08/03 11:34:42;;;;;;;5.63;2.28;;;;;;;27.96;35.15;98366.88;129434;1096;113987;-89
2021/08/03 11:37:21;;;;;;;5.35;2.70;;;;;;;27.99;34.53;98359.72;129411;1097;114176;-88